Time;durP1;ratioP1;P1;durP2;ratioP2;P2;SDS_P1;SDS_P2;PMS_P1;PMS_P2;Temp;Humidity;BMP_temperature;BMP_pressure;BME280_temperature;BME280_humidity;BME280_pressure;Samples;Min_cycle;Max_cycle;Signal;HPM_P1;HPM_P2
2022/02/23 07:21:10;;;;;;;;;;;;;;;-3.74;69.45;100610.81;4855552;29;20406;-62
2022/02/23 07:23:37;;;;;;;;;;;;;;;-3.58;69.61;100624.72;4861157;29;19960;-65
2022/02/23 07:26:03;;;;;;;;;;;;;;;-3.53;68.68;100630.56;4860920;29;19946;-67
2022/02/23 07:28:28;;;;;;;;;;;;;;;-3.59;67.94;100628.25;4860314;29;20371;-65
2022/02/23 07:30:54;;;;;;;;;;;;;;;-3.47;69.17;100629.41;4860961;29;19931;-65
2022/02/23 07:33:19;;;;;;;;;;;;;;;-3.43;68.29;100633.56;4860814;29;19992;-66
2022/02/23 07:35:46;;;;;;;;;;;;;;;-3.60;67.83;100634.38;4860858;29;20388;-62
2022/02/23 07:38:12;;;;;;;;;;;;;;;-3.63;68.82;100642.34;4860889;29;19928;-63
2022/02/23 07:40:37;;;;;;;;;;;;;;;-3.51;69.06;100648.69;4860848;29;19931;-61
2022/02/23 07:43:04;;;;;;;;;;;;;;;-3.45;69.14;100653.63;4860663;29;19924;-64
2022/02/23 07:45:30;;;;;;;;;;;;;;;-3.35;68.78;100659.19;4860648;29;20318;-63
2022/02/23 07:47:55;;;;;;;;;;;;;;;-3.37;68.24;100655.84;4861039;29;19924;-62
2022/02/23 07:50:21;;;;;;;;;;;;;;;-3.56;67.98;100656.75;4861356;29;19972;-62
2022/02/23 07:52:50;;;;;;;;;;;;;;;-3.62;69.59;100662.25;4861060;29;19924;-63
2022/02/23 07:55:15;;;;;;;;;;;;;;;-3.62;69.50;100667.47;4860271;29;19931;-64
2022/02/23 07:57:41;;;;;;;;;;;;;;;-3.59;69.18;100671.66;4860167;29;19924;-64
2022/02/23 08:00:09;;;;;;;;;;;;;;;-3.64;69.22;100674.50;4859184;29;19925;-65
2022/02/23 08:02:35;;;;;;;;;;;;;;;-3.60;69.18;100689.03;4860663;29;19931;-63
2022/02/23 08:05:00;;;;;;;;;;;;;;;-3.60;69.41;100690.81;4860478;29;20015;-62
2022/02/23 08:07:27;;;;;;;;;;;;;;;-3.55;68.84;100689.66;4860316;29;19970;-62
2022/02/23 08:09:53;;;;;;;;;;;;;;;-3.54;69.10;100698.31;4860210;29;19927;-61
2022/02/23 08:12:18;;;;;;;;;;;;;;;-3.45;69.72;100706.53;4860073;29;19980;-61
2022/02/23 08:14:44;;;;;;;;;;;;;;;-3.39;69.37;100714.97;4860303;29;19924;-62
2022/02/23 08:19:56;;;;;;;;;;;;;;;-3.46;68.39;100717.88;4855320;29;19928;-62
2022/02/23 08:22:28;;;;;;;;;;;;;;;-3.53;69.09;100721.66;4860007;29;20059;-61
2022/02/23 08:24:54;;;;;;;;;;;;;;;-3.59;69.57;100724.56;4860276;29;19928;-61
2022/02/23 08:27:20;;;;;;;;;;;;;;;-3.71;70.13;100726.94;4859935;29;19951;-59
2022/02/23 08:29:46;;;;;;;;;;;;;;;-3.61;69.42;100730.78;4860006;29;19924;-64
2022/02/23 08:32:13;;;;;;;;;;;;;;;-3.48;69.27;100727.50;4860290;29;19935;-61
2022/02/23 08:34:41;;;;;;;;;;;;;;;-3.26;69.11;100731.66;4859942;29;19972;-63
2022/02/23 08:37:07;;;;;;;;;;;;;;;-3.28;67.70;100728.28;4859895;29;20022;-63
2022/02/23 08:39:36;;;;;;;;;;;;;;;-3.36;67.46;100727.81;4859890;29;20089;-65
2022/02/23 08:42:13;;;;;;;;;;;;;;;-3.29;67.46;100735.25;4860070;29;19947;-63
2022/02/23 08:44:39;;;;;;;;;;;;;;;-3.30;68.33;100746.59;4859984;29;19924;-64
2022/02/23 08:47:05;;;;;;;;;;;;;;;-3.20;67.77;100741.75;4860093;29;19924;-60
2022/02/23 08:49:30;;;;;;;;;;;;;;;-3.31;67.43;100749.28;4859338;29;19985;-62
2022/02/23 08:51:56;;;;;;;;;;;;;;;-3.28;68.00;100749.13;4859856;29;19975;-58
2022/02/23 08:54:22;;;;;;;;;;;;;;;-3.23;67.17;100754.94;4859791;29;19924;-60
2022/02/23 08:56:47;;;;;;;;;;;;;;;-3.23;67.68;100752.34;4859604;29;20307;-64
2022/02/23 08:59:13;;;;;;;;;;;;;;;-3.17;68.28;100762.47;4860117;29;19924;-63
2022/02/23 09:01:39;;;;;;;;;;;;;;;-3.09;67.36;100757.72;4863392;29;19982;-61
2022/02/23 09:04:04;;;;;;;;;;;;;;;-3.07;67.30;100752.44;4863052;29;20387;-63
2022/02/23 09:06:32;;;;;;;;;;;;;;;-3.12;67.76;100756.13;4863226;29;20380;-63
2022/02/23 09:08:58;;;;;;;;;;;;;;;-3.35;67.99;100758.16;4863271;29;20287;-63
2022/02/23 09:11:23;;;;;;;;;;;;;;;-3.54;69.71;100759.03;4863452;29;20023;-62
2022/02/23 09:13:49;;;;;;;;;;;;;;;-3.46;68.97;100769.09;4863438;29;20295;-64
2022/02/23 09:16:14;;;;;;;;;;;;;;;-3.40;69.18;100770.56;4846747;29;20019;-68
2022/02/23 09:18:40;;;;;;;;;;;;;;;-3.40;68.58;100765.34;4863119;29;19951;-66
2022/02/23 09:21:07;;;;;;;;;;;;;;;-3.35;68.96;100768.56;4846363;29;19935;-64
2022/02/23 09:23:32;;;;;;;;;;;;;;;-3.21;68.60;100768.72;4846677;29;19935;-65
2022/02/23 09:25:58;;;;;;;;;;;;;;;-3.18;67.08;100768.56;4863301;29;19928;-63
2022/02/23 09:28:24;;;;;;;;;;;;;;;-3.23;68.04;100778.38;4862881;29;20323;-66
2022/02/23 09:30:50;;;;;;;;;;;;;;;-3.19;67.40;100787.72;4862917;29;20399;-65
2022/02/23 09:33:16;;;;;;;;;;;;;;;-3.24;67.30;100787.13;4862652;29;19946;-66
2022/02/23 09:35:42;;;;;;;;;;;;;;;-3.27;66.55;100792.47;4862928;29;20388;-62
2022/02/23 09:38:07;;;;;;;;;;;;;;;-3.21;66.88;100797.38;4863013;29;19954;-69
2022/02/23 09:40:34;;;;;;;;;;;;;;;-3.08;66.72;100795.03;4862803;29;19924;-62
2022/02/23 09:42:59;;;;;;;;;;;;;;;-2.87;67.30;100792.22;4846068;29;20314;-68
2022/02/23 09:45:27;;;;;;;;;;;;;;;-2.79;66.39;100799.66;4846074;29;20007;-63
2022/02/23 09:47:52;;;;;;;;;;;;;;;-2.81;65.17;100797.13;4862233;29;19924;-64
2022/02/23 09:50:21;;;;;;;;;;;;;;;-2.76;65.99;100794.28;4862505;29;19931;-63
2022/02/23 09:52:48;;;;;;;;;;;;;;;-2.73;65.71;100798.50;4862706;29;19931;-64
2022/02/23 09:55:13;;;;;;;;;;;;;;;-2.78;66.55;100800.50;4846097;29;20311;-65
2022/02/23 09:57:39;;;;;;;;;;;;;;;-2.87;65.19;100807.88;4862661;29;20003;-64
2022/02/23 10:00:05;;;;;;;;;;;;;;;-2.87;65.88;100807.88;4862510;29;19928;-65
2022/02/23 10:02:35;;;;;;;;;;;;;;;-2.88;65.44;100800.97;4862486;29;19931;-67
2022/02/23 10:05:01;;;;;;;;;;;;;;;-2.75;65.90;100813.38;4862517;29;20461;-66
2022/02/23 10:07:27;;;;;;;;;;;;;;;-2.59;66.01;100806.47;4862639;29;19988;-67
2022/02/23 10:09:54;;;;;;;;;;;;;;;-2.42;65.47;100810.81;4862568;29;19963;-65
2022/02/23 10:12:24;;;;;;;;;;;;;;;-2.44;64.96;100817.88;4845882;29;20407;-68
2022/02/23 10:15:02;;;;;;;;;;;;;;;-2.63;64.37;100817.97;4846195;29;19931;-64
2022/02/23 10:17:39;;;;;;;;;;;;;;;-2.65;65.48;100825.00;4862540;29;19947;-66
2022/02/23 10:20:23;;;;;;;;;;;;;;;-2.58;64.77;100829.03;4862523;29;19928;-64
2022/02/23 10:22:50;;;;;;;;;;;;;;;-2.57;64.50;100828.94;4845705;29;19928;-67
2022/02/23 10:25:22;;;;;;;;;;;;;;;-2.53;64.54;100827.03;4862341;29;19924;-71
2022/02/23 10:27:48;;;;;;;;;;;;;;;-2.65;65.09;100827.63;4845605;29;20291;-66
2022/02/23 10:30:24;;;;;;;;;;;;;;;-2.61;65.29;100830.00;4862953;29;19924;-70
2022/02/23 10:32:52;;;;;;;;;;;;;;;-2.48;65.64;100845.88;4862876;29;19971;-65
2022/02/23 10:35:24;;;;;;;;;;;;;;;-2.44;65.12;100847.41;4862052;29;19925;-64
2022/02/23 10:37:50;;;;;;;;;;;;;;;-2.33;65.72;100850.31;4862964;29;19928;-68
2022/02/23 10:40:15;;;;;;;;;;;;;;;-2.43;64.48;100859.53;4862667;29;19931;-65
2022/02/23 10:42:40;;;;;;;;;;;;;;;-2.49;65.14;100862.44;4863271;29;20014;-67
2022/02/23 10:45:06;;;;;;;;;;;;;;;-2.60;65.15;100869.97;4862373;29;20456;-64
2022/02/23 10:47:39;;;;;;;;;;;;;;;-2.64;65.00;100873.63;4861551;29;19924;-67
2022/02/23 10:50:08;;;;;;;;;;;;;;;-2.62;65.79;100877.00;4861385;29;19928;-62
2022/02/23 10:52:37;;;;;;;;;;;;;;;-2.47;65.52;100868.44;4861442;29;19924;-68
2022/02/23 10:55:17;;;;;;;;;;;;;;;-2.48;64.83;100869.34;4861846;29;20806;-65
2022/02/23 10:58:03;;;;;;;;;;;;;;;-2.57;65.29;100877.66;4845043;29;20387;-67
2022/02/23 11:00:31;;;;;;;;;;;;;;;-2.57;65.05;100882.84;4861604;29;19924;-65
2022/02/23 11:02:56;;;;;;;;;;;;;;;-2.69;66.04;100889.50;4861561;29;19924;-66
2022/02/23 11:05:24;;;;;;;;;;;;;;;-2.82;66.23;100889.28;4861617;29;19980;-64
2022/02/23 11:07:53;;;;;;;;;;;;;;;-2.90;66.69;100891.38;4861494;29;20300;-69
2022/02/23 11:10:19;;;;;;;;;;;;;;;-3.00;66.83;100900.56;4861763;29;19924;-67
2022/02/23 11:12:45;;;;;;;;;;;;;;;-3.33;66.89;100904.75;4845641;29;19931;-68
2022/02/23 11:15:14;;;;;;;;;;;;;;;-3.53;68.21;100903.91;4861485;29;19924;-68
2022/02/23 11:17:40;;;;;;;;;;;;;;;-3.54;67.95;100915.22;4861590;29;19936;-68
2022/02/23 11:20:10;;;;;;;;;;;;;;;-3.55;67.72;100931.75;4860085;29;20406;-66
2022/02/23 11:22:41;;;;;;;;;;;;;;;-3.74;68.93;100938.72;4861352;29;20027;-66
2022/02/23 11:25:06;;;;;;;;;;;;;;;-3.64;68.74;100940.00;4845391;29;20344;-67
2022/02/23 11:27:34;;;;;;;;;;;;;;;-3.55;68.21;100942.19;4861634;29;19924;-70
2022/02/23 11:30:05;;;;;;;;;;;;;;;-3.47;67.38;100936.63;4860770;29;19967;-71
2022/02/23 11:32:32;;;;;;;;;;;;;;;-3.35;67.75;100946.50;4844932;29;19975;-67
2022/02/23 11:34:57;;;;;;;;;;;;;;;-3.22;66.60;100963.25;4861332;29;19966;-68
2022/02/23 11:37:22;;;;;;;;;;;;;;;-3.29;66.88;100959.22;4861900;29;20001;-69
2022/02/23 11:39:50;;;;;;;;;;;;;;;-3.28;67.11;100960.06;4862308;29;19931;-70
2022/02/23 11:42:22;;;;;;;;;;;;;;;-3.49;66.65;100964.47;4861747;29;19923;-74
2022/02/23 11:44:50;;;;;;;;;;;;;;;-3.49;67.18;100954.91;4862286;29;19928;-73
2022/02/23 11:47:24;;;;;;;;;;;;;;;-3.44;67.63;100958.19;4862261;29;19931;-72
2022/02/23 11:49:53;;;;;;;;;;;;;;;-3.35;67.16;100956.91;4862685;29;19928;-69
2022/02/23 11:52:20;;;;;;;;;;;;;;;-3.26;67.77;100959.09;4862223;29;19931;-73
2022/02/23 11:54:55;;;;;;;;;;;;;;;-3.13;67.04;100951.56;4861715;29;19981;-70
2022/02/23 11:57:39;;;;;;;;;;;;;;;-3.18;67.51;100962.22;4861113;29;19931;-78
2022/02/23 12:00:07;;;;;;;;;;;;;;;-3.29;67.92;100963.59;4861308;29;19924;-71
2022/02/23 12:02:33;;;;;;;;;;;;;;;-3.15;68.75;100976.84;4844408;29;19924;-70
2022/02/23 12:04:59;;;;;;;;;;;;;;;-3.09;67.93;100968.75;4860836;29;19931;-69
2022/02/23 12:07:26;;;;;;;;;;;;;;;-2.92;67.46;100960.97;4844277;29;19924;-67
2022/02/23 12:09:57;;;;;;;;;;;;;;;-2.82;68.00;100969.22;4860402;29;19980;-66
2022/02/23 12:12:30;;;;;;;;;;;;;;;-2.70;66.71;100970.41;4860572;29;20360;-64
2022/02/23 12:14:55;;;;;;;;;;;;;;;-2.74;67.35;100969.69;4828684;29;19924;-67
2022/02/23 12:17:39;;;;;;;;;;;;;;;-2.83;66.96;100981.41;4860657;29;19924;-65
2022/02/23 12:20:05;;;;;;;;;;;;;;;-2.85;67.07;100975.44;4859972;29;19935;-68
2022/02/23 12:22:36;;;;;;;;;;;;;;;-2.93;66.90;100982.75;4860969;29;20423;-61
2022/02/23 12:25:04;;;;;;;;;;;;;;;-3.02;67.23;100985.78;4861298;29;19931;-65
2022/02/23 12:27:29;;;;;;;;;;;;;;;-2.97;67.96;100989.00;4844066;29;19931;-64
2022/02/23 12:29:55;;;;;;;;;;;;;;;-2.97;67.88;101004.66;4860271;29;19927;-61
2022/02/23 12:32:24;;;;;;;;;;;;;;;-3.11;67.31;101009.66;4860241;29;19935;-65
2022/02/23 12:34:52;;;;;;;;;;;;;;;-3.21;67.81;101010.97;4828083;29;19990;-67
2022/02/23 12:37:20;;;;;;;;;;;;;;;-3.23;67.94;101018.00;4843975;29;20523;-63
2022/02/23 12:39:48;;;;;;;;;;;;;;;-3.23;67.84;101028.44;4860377;29;19931;-62
2022/02/23 12:42:15;;;;;;;;;;;;;;;-3.38;68.26;101018.72;4860264;29;19928;-65
2022/02/23 12:44:42;;;;;;;;;;;;;;;-3.30;68.56;101022.66;4860312;29;20027;-64
2022/02/23 12:47:11;;;;;;;;;;;;;;;-3.24;68.38;101022.38;4860507;29;19955;-63
2022/02/23 12:49:37;;;;;;;;;;;;;;;-3.11;68.56;101027.91;4859932;29;19928;-63
2022/02/23 12:52:04;;;;;;;;;;;;;;;-3.00;68.43;101019.59;4860242;29;19989;-70
2022/02/23 12:54:32;;;;;;;;;;;;;;;-2.97;68.44;101030.72;4843400;29;19924;-66
2022/02/23 12:56:59;;;;;;;;;;;;;;;-2.89;68.32;101028.63;4860336;29;19924;-67
2022/02/23 12:59:25;;;;;;;;;;;;;;;-2.83;67.76;101038.75;4843498;29;19967;-66
2022/02/23 13:01:52;;;;;;;;;;;;;;;-2.79;68.22;101042.06;4860068;29;19924;-63
2022/02/23 13:04:19;;;;;;;;;;;;;;;-2.83;68.09;101046.56;4859960;29;19924;-69
2022/02/23 13:06:44;;;;;;;;;;;;;;;-2.85;66.99;101051.00;4860269;29;19947;-68
2022/02/23 13:09:14;;;;;;;;;;;;;;;-2.89;68.05;101065.09;4859124;29;20384;-66
2022/02/23 13:11:44;;;;;;;;;;;;;;;-2.85;68.10;101071.03;4843325;29;19928;-67
2022/02/23 13:14:11;;;;;;;;;;;;;;;-2.99;68.62;101074.22;4860105;29;19928;-65
2022/02/23 13:16:37;;;;;;;;;;;;;;;-3.01;68.56;101076.06;4860293;29;19924;-66
2022/02/23 13:19:03;;;;;;;;;;;;;;;-3.02;68.55;101078.75;4860881;29;19924;-65
2022/02/23 13:22:02;;;;;;;;;;;;;;;-3.03;68.98;101077.06;4860658;29;19976;-63
2022/02/23 13:24:34;;;;;;;;;;;;;;;-3.07;68.73;101076.34;4856243;29;19984;-65
2022/02/23 13:27:08;;;;;;;;;;;;;;;-3.08;68.73;101076.41;4859754;29;19989;-70
2022/02/23 13:29:34;;;;;;;;;;;;;;;-3.01;68.70;101076.06;4859909;29;20348;-67
2022/02/23 13:32:00;;;;;;;;;;;;;;;-2.95;68.57;101081.00;4860072;29;19931;-65
2022/02/23 13:34:52;;;;;;;;;;;;;;;-2.90;68.49;101080.78;4860047;29;19993;-67
2022/02/23 13:37:22;;;;;;;;;;;;;;;-2.88;68.36;101085.03;4844287;29;20300;-62
2022/02/23 13:39:49;;;;;;;;;;;;;;;-2.82;68.48;101087.38;4860577;29;19930;-63
2022/02/23 13:42:16;;;;;;;;;;;;;;;-2.81;68.23;101094.25;4860291;29;19947;-65
2022/02/23 13:44:43;;;;;;;;;;;;;;;-2.87;68.48;101097.16;4860403;29;19924;-66
2022/02/23 13:47:22;;;;;;;;;;;;;;;-2.91;68.26;101097.34;4847377;29;19924;-66
2022/02/23 13:49:57;;;;;;;;;;;;;;;-2.98;68.41;101101.97;4863302;29;19928;-65
2022/02/23 13:52:23;;;;;;;;;;;;;;;-3.15;68.83;101114.94;4864054;29;19930;-64
2022/02/23 13:54:59;;;;;;;;;;;;;;;-3.14;69.46;101116.63;4863718;29;20018;-64
2022/02/23 13:57:25;;;;;;;;;;;;;;;-3.08;69.00;101118.94;4862959;29;20004;-64
2022/02/23 13:59:50;;;;;;;;;;;;;;;-3.03;68.94;101113.53;4861510;29;20395;-66
2022/02/23 14:02:15;;;;;;;;;;;;;;;-3.21;69.80;101117.78;4861803;29;19924;-64
2022/02/23 14:04:43;;;;;;;;;;;;;;;-3.25;70.63;101118.81;4863216;29;20295;-65
2022/02/23 14:07:08;;;;;;;;;;;;;;;-3.26;70.71;101117.13;4867279;29;19979;-71
2022/02/23 14:09:35;;;;;;;;;;;;;;;-3.24;70.39;101123.97;4847211;29;19968;-63
2022/02/23 14:12:01;;;;;;;;;;;;;;;-3.23;71.20;101124.81;4863506;29;19924;-62
2022/02/23 14:14:28;;;;;;;;;;;;;;;-3.21;70.85;101131.63;4862686;29;20083;-64
2022/02/23 14:16:54;;;;;;;;;;;;;;;-3.19;71.46;101127.22;4862837;29;19924;-63
2022/02/23 14:19:23;;;;;;;;;;;;;;;-3.22;71.63;101129.94;4862545;29;19928;-62
2022/02/23 14:22:16;;;;;;;;;;;;;;;-3.37;71.83;101130.63;4863051;29;19934;-68
2022/02/23 14:24:42;;;;;;;;;;;;;;;-3.29;72.10;101132.88;4862451;29;19983;-64
2022/02/23 14:27:10;;;;;;;;;;;;;;;-3.25;71.12;101140.50;4862258;29;19924;-63
2022/02/23 14:29:37;;;;;;;;;;;;;;;-3.20;71.70;101146.34;4862382;29;19931;-62
2022/02/23 14:32:24;;;;;;;;;;;;;;;-3.17;71.17;101150.63;4862328;29;20470;-65
2022/02/23 14:35:03;;;;;;;;;;;;;;;-3.11;71.37;101142.53;4862293;29;19933;-65
2022/02/23 14:37:32;;;;;;;;;;;;;;;-3.14;71.71;101142.66;4862915;29;19924;-66
2022/02/23 14:40:00;;;;;;;;;;;;;;;-3.21;71.96;101141.22;4862562;29;19924;-70
2022/02/23 14:42:27;;;;;;;;;;;;;;;-3.23;73.04;101135.22;4862171;29;20380;-67
2022/02/23 14:44:53;;;;;;;;;;;;;;;-3.16;72.60;101134.91;4862057;29;20398;-63
2022/02/23 14:47:19;;;;;;;;;;;;;;;-3.13;71.90;101136.53;4862509;29;19924;-68
2022/02/23 14:49:44;;;;;;;;;;;;;;;-3.12;72.52;101140.84;4845893;29;20064;-66
2022/02/23 14:52:10;;;;;;;;;;;;;;;-3.02;72.42;101152.53;4848082;29;20022;-68
2022/02/23 14:54:35;;;;;;;;;;;;;;;-2.92;72.08;101142.56;4847825;29;19978;-67
2022/02/23 14:57:02;;;;;;;;;;;;;;;-2.88;72.29;101142.38;4862148;29;20399;-65
2022/02/23 14:59:28;;;;;;;;;;;;;;;-2.88;71.74;101150.19;4846831;29;19927;-67
2022/02/23 15:01:55;;;;;;;;;;;;;;;-2.94;72.61;101149.59;4867599;29;19924;-70
2022/02/23 15:04:21;;;;;;;;;;;;;;;-3.01;72.92;101154.22;4863463;29;20463;-68
2022/02/23 15:06:46;;;;;;;;;;;;;;;-2.94;72.82;101160.03;4847647;29;19924;-66
2022/02/23 15:09:11;;;;;;;;;;;;;;;-2.98;73.06;101159.31;4861911;29;20395;-63
2022/02/23 15:11:37;;;;;;;;;;;;;;;-2.92;73.27;101160.81;4862103;29;19931;-66
2022/02/23 15:14:02;;;;;;;;;;;;;;;-2.87;72.75;101164.06;4861400;29;19947;-63
2022/02/23 15:16:28;;;;;;;;;;;;;;;-2.95;72.51;101163.53;4844230;29;20422;-65
2022/02/23 15:18:53;;;;;;;;;;;;;;;-3.04;73.34;101170.00;4827958;29;19931;-63
2022/02/23 15:21:24;;;;;;;;;;;;;;;-2.96;73.48;101178.34;4860346;29;19928;-65
2022/02/23 15:23:50;;;;;;;;;;;;;;;-2.88;72.70;101165.84;4861706;29;20031;-67
2022/02/23 15:26:15;;;;;;;;;;;;;;;-2.79;72.97;101171.56;4844874;29;19971;-70
2022/02/23 15:28:41;;;;;;;;;;;;;;;-2.73;72.94;101181.69;4846600;29;20396;-70
2022/02/23 15:31:13;;;;;;;;;;;;;;;-2.73;72.26;101190.38;4844532;29;19924;-71
2022/02/23 15:33:38;;;;;;;;;;;;;;;-2.70;72.31;101185.00;4844362;29;19987;-70
2022/02/23 15:36:05;;;;;;;;;;;;;;;-2.69;72.69;101188.47;4861548;29;19928;-78
2022/02/23 15:38:30;;;;;;;;;;;;;;;-2.65;72.65;101187.41;4863566;29;19923;-70
2022/02/23 15:40:56;;;;;;;;;;;;;;;-2.69;72.14;101191.06;4861486;29;19924;-69
2022/02/23 15:43:21;;;;;;;;;;;;;;;-2.73;72.01;101199.94;4860868;29;20319;-62
2022/02/23 15:45:46;;;;;;;;;;;;;;;-2.71;72.22;101193.75;4860734;29;20014;-64
2022/02/23 15:48:12;;;;;;;;;;;;;;;-2.82;72.59;101189.03;4844226;29;19924;-61
2022/02/23 15:50:37;;;;;;;;;;;;;;;-2.86;73.00;101197.03;4860770;29;19925;-63
2022/02/23 15:53:03;;;;;;;;;;;;;;;-2.84;72.82;101198.66;4860612;29;20239;-67
2022/02/23 15:55:29;;;;;;;;;;;;;;;-2.75;72.34;101207.00;4860685;29;20000;-68
2022/02/23 15:57:54;;;;;;;;;;;;;;;-2.66;72.82;101204.81;4860690;29;20023;-68
2022/02/23 16:00:20;;;;;;;;;;;;;;;-2.64;71.93;101215.19;4860685;29;20027;-65
2022/02/23 16:02:45;;;;;;;;;;;;;;;-2.61;71.79;101204.59;4860557;29;19924;-66
2022/02/23 16:05:11;;;;;;;;;;;;;;;-2.63;72.28;101209.03;4844137;29;19928;-66
2022/02/23 16:07:36;;;;;;;;;;;;;;;-2.61;72.19;101220.25;4844289;29;19932;-66
2022/02/23 16:10:02;;;;;;;;;;;;;;;-2.59;72.32;101219.31;4860699;29;19973;-66
2022/02/23 16:12:28;;;;;;;;;;;;;;;-2.60;72.23;101225.44;4860347;29;20400;-66
2022/02/23 16:14:54;;;;;;;;;;;;;;;-2.58;72.40;101225.38;4860536;29;19972;-65
2022/02/23 16:17:19;;;;;;;;;;;;;;;-2.57;72.23;101230.50;4860340;29;20043;-67
2022/02/23 16:19:48;;;;;;;;;;;;;;;-2.54;72.40;101230.38;4860097;29;19928;-70
2022/02/23 16:22:14;;;;;;;;;;;;;;;-2.60;71.89;101232.41;4843721;29;19935;-68
2022/02/23 16:24:40;;;;;;;;;;;;;;;-2.65;72.32;101229.97;4860528;29;19924;-71
2022/02/23 16:27:08;;;;;;;;;;;;;;;-2.67;72.65;101236.16;4829123;29;19931;-70
2022/02/23 16:29:35;;;;;;;;;;;;;;;-2.69;72.53;101238.00;4860387;29;19924;-64
2022/02/23 16:32:00;;;;;;;;;;;;;;;-2.64;72.84;101238.66;4860136;29;20311;-69
2022/02/23 16:34:26;;;;;;;;;;;;;;;-2.60;72.32;101245.44;4860277;29;19924;-67
2022/02/23 16:36:52;;;;;;;;;;;;;;;-2.57;72.59;101247.91;4860427;29;19928;-69
2022/02/23 16:39:18;;;;;;;;;;;;;;;-2.51;72.38;101250.25;4843760;29;19924;-68
2022/02/23 16:41:43;;;;;;;;;;;;;;;-2.57;72.68;101251.38;4843974;29;19928;-67
2022/02/23 16:44:08;;;;;;;;;;;;;;;-2.72;72.93;101238.13;4862148;29;19948;-71
2022/02/23 16:46:36;;;;;;;;;;;;;;;-2.78;72.96;101243.63;4843803;29;20023;-73
2022/02/23 16:49:03;;;;;;;;;;;;;;;-2.81;73.06;101249.81;4844299;29;19924;-75
2022/02/23 16:51:29;;;;;;;;;;;;;;;-2.83;73.45;101252.50;4845558;29;19971;-74
2022/02/23 16:53:54;;;;;;;;;;;;;;;-2.82;73.39;101254.19;4862617;29;19924;-71
2022/02/23 16:56:19;;;;;;;;;;;;;;;-2.79;73.73;101250.59;4862233;29;19985;-76
2022/02/23 16:58:45;;;;;;;;;;;;;;;-2.78;73.19;101260.13;4845720;29;19972;-76
2022/02/23 17:01:10;;;;;;;;;;;;;;;-2.72;73.65;101261.59;4860155;29;20034;-69
2022/02/23 17:03:36;;;;;;;;;;;;;;;-2.71;73.66;101265.91;4860673;29;19932;-71
2022/02/23 17:06:01;;;;;;;;;;;;;;;-2.78;73.29;101262.72;4860922;29;19924;-75
2022/02/23 17:08:27;;;;;;;;;;;;;;;-2.76;74.02;101265.25;4843861;29;19924;-66
2022/02/23 17:10:52;;;;;;;;;;;;;;;-2.76;73.77;101262.66;4860097;29;19931;-67
2022/02/23 17:13:17;;;;;;;;;;;;;;;-2.76;74.07;101267.88;4829334;29;19931;-66
2022/02/23 17:15:46;;;;;;;;;;;;;;;-2.69;73.46;101259.72;4860622;29;20085;-72
2022/02/23 17:18:17;;;;;;;;;;;;;;;-2.61;73.53;101261.97;4860082;29;20022;-67
2022/02/23 17:20:47;;;;;;;;;;;;;;;-2.56;73.17;101260.03;4860926;29;19928;-65
2022/02/23 17:23:13;;;;;;;;;;;;;;;-2.55;72.85;101266.94;4832557;29;20434;-67
2022/02/23 17:25:39;;;;;;;;;;;;;;;-2.54;73.06;101272.09;4864967;29;19924;-66
2022/02/23 17:28:05;;;;;;;;;;;;;;;-2.54;72.92;101271.25;4864014;29;19924;-64
2022/02/23 17:30:32;;;;;;;;;;;;;;;-2.57;72.34;101271.38;4864567;29;19924;-65
2022/02/23 17:32:57;;;;;;;;;;;;;;;-2.64;72.02;101268.16;4864010;29;20300;-67
2022/02/23 17:35:22;;;;;;;;;;;;;;;-2.63;71.89;101271.63;4847690;29;19931;-67
2022/02/23 17:37:49;;;;;;;;;;;;;;;-2.64;71.91;101277.75;4864328;29;19928;-65
2022/02/23 17:40:15;;;;;;;;;;;;;;;-2.63;72.49;101282.06;4847979;29;19924;-66
2022/02/23 17:42:40;;;;;;;;;;;;;;;-2.61;72.55;101288.91;4863830;29;19959;-65
2022/02/23 17:45:06;;;;;;;;;;;;;;;-2.61;71.88;101288.06;4864235;29;19932;-68
2022/02/23 17:47:31;;;;;;;;;;;;;;;-2.60;71.23;101295.00;4863654;29;19973;-67
2022/02/23 17:49:57;;;;;;;;;;;;;;;-2.62;71.20;101288.97;4863120;29;19950;-69
2022/02/23 17:52:24;;;;;;;;;;;;;;;-2.54;71.96;101292.13;4863774;29;20300;-64
2022/02/23 17:54:55;;;;;;;;;;;;;;;-2.53;70.86;101296.41;4864296;29;19959;-68
2022/02/23 17:57:21;;;;;;;;;;;;;;;-2.57;70.82;101300.06;4864096;29;19928;-64
2022/02/23 17:59:47;;;;;;;;;;;;;;;-2.56;70.73;101301.75;4862725;29;19928;-65
2022/02/23 18:02:12;;;;;;;;;;;;;;;-2.47;71.33;101295.28;4863339;29;20261;-65
2022/02/23 18:04:38;;;;;;;;;;;;;;;-2.48;70.80;101307.50;4862887;29;19925;-66
2022/02/23 18:07:03;;;;;;;;;;;;;;;-2.58;70.98;101299.22;4846413;29;19924;-67
2022/02/23 18:09:28;;;;;;;;;;;;;;;-2.61;70.99;101312.38;4846272;29;19930;-66
2022/02/23 18:11:54;;;;;;;;;;;;;;;-2.64;71.45;101309.88;4862870;29;20307;-64
2022/02/23 18:14:19;;;;;;;;;;;;;;;-2.60;71.05;101302.81;4862573;29;20060;-68
2022/02/23 18:16:45;;;;;;;;;;;;;;;-2.54;70.78;101303.38;4862742;29;19933;-63
2022/02/23 18:19:10;;;;;;;;;;;;;;;-2.51;70.81;101305.88;4861507;29;20015;-65
2022/02/23 18:21:40;;;;;;;;;;;;;;;-2.49;71.11;101308.41;4862095;29;19985;-65
2022/02/23 18:24:06;;;;;;;;;;;;;;;-2.49;70.77;101303.19;4862690;29;19935;-65
2022/02/23 18:26:31;;;;;;;;;;;;;;;-2.47;70.75;101306.56;4862264;29;19924;-65
2022/02/23 18:28:56;;;;;;;;;;;;;;;-2.57;70.99;101306.13;4830380;29;19962;-67
2022/02/23 18:31:22;;;;;;;;;;;;;;;-2.58;71.46;101308.81;4861852;29;19924;-65
2022/02/23 18:33:48;;;;;;;;;;;;;;;-2.60;71.21;101310.63;4861941;29;19949;-66
2022/02/23 18:36:15;;;;;;;;;;;;;;;-2.56;71.64;101315.66;4862426;29;19953;-65
2022/02/23 18:39:05;;;;;;;;;;;;;;;-2.56;71.90;101320.88;4862554;29;19976;-63
2022/02/23 18:41:30;;;;;;;;;;;;;;;-2.56;71.14;101325.22;4861999;29;19932;-64
2022/02/23 18:43:56;;;;;;;;;;;;;;;-2.55;71.86;101330.38;4845638;29;19927;-65
2022/02/23 18:46:22;;;;;;;;;;;;;;;-2.52;71.56;101329.41;4845388;29;19931;-67
2022/02/23 18:48:47;;;;;;;;;;;;;;;-2.56;70.95;101320.03;4862647;29;19924;-63
2022/02/23 18:51:15;;;;;;;;;;;;;;;-2.57;71.45;101331.38;4862159;29;19931;-63
2022/02/23 18:53:40;;;;;;;;;;;;;;;-2.48;71.26;101332.72;4861874;29;19993;-67
2022/02/23 18:56:06;;;;;;;;;;;;;;;-2.47;71.17;101331.81;4862527;29;19924;-63
2022/02/23 18:58:31;;;;;;;;;;;;;;;-2.43;71.70;101334.22;4862986;29;20294;-65
2022/02/23 19:00:57;;;;;;;;;;;;;;;-2.46;70.59;101334.34;4846391;29;20003;-63
2022/02/23 19:03:22;;;;;;;;;;;;;;;-2.49;71.20;101334.47;4861727;29;20022;-64
2022/02/23 19:05:48;;;;;;;;;;;;;;;-2.59;71.04;101336.66;4861768;29;19930;-64
2022/02/23 19:08:13;;;;;;;;;;;;;;;-2.66;71.43;101336.94;4860366;29;20329;-67
2022/02/23 19:10:39;;;;;;;;;;;;;;;-2.67;71.75;101340.47;4861710;29;19924;-64
2022/02/23 19:13:05;;;;;;;;;;;;;;;-2.71;71.38;101338.91;4861613;29;19955;-66
2022/02/23 19:15:30;;;;;;;;;;;;;;;-2.75;71.30;101342.56;4861485;29;19928;-63
2022/02/23 19:17:55;;;;;;;;;;;;;;;-2.76;70.90;101340.84;4861767;29;20336;-65
2022/02/23 19:20:23;;;;;;;;;;;;;;;-2.77;71.05;101345.22;4844604;29;19928;-65
2022/02/23 19:22:52;;;;;;;;;;;;;;;-2.83;71.22;101351.53;4863369;29;19928;-65
2022/02/23 19:25:17;;;;;;;;;;;;;;;-2.82;70.98;101357.59;4846830;29;19928;-63
2022/02/23 19:27:43;;;;;;;;;;;;;;;-2.76;70.84;101356.50;4861488;29;20731;-63
2022/02/23 19:30:10;;;;;;;;;;;;;;;-2.78;70.32;101358.31;4844686;29;19939;-64
2022/02/23 19:32:36;;;;;;;;;;;;;;;-2.76;69.68;101366.94;4844851;29;19964;-66
2022/02/23 19:35:01;;;;;;;;;;;;;;;-2.69;69.53;101373.56;4861289;29;19978;-65
2022/02/23 19:37:28;;;;;;;;;;;;;;;-2.70;69.40;101371.88;4860921;29;20311;-64
2022/02/23 19:39:57;;;;;;;;;;;;;;;-2.69;69.35;101358.78;4860385;29;20068;-64
2022/02/23 19:42:22;;;;;;;;;;;;;;;-2.69;69.04;101369.22;4861272;29;19924;-66
2022/02/23 19:44:47;;;;;;;;;;;;;;;-2.68;69.35;101365.69;4844092;29;20300;-66
2022/02/23 19:47:13;;;;;;;;;;;;;;;-2.70;69.39;101369.28;4860857;29;19925;-64
2022/02/23 19:49:38;;;;;;;;;;;;;;;-2.69;69.13;101370.97;4860856;29;19924;-65
2022/02/23 19:52:05;;;;;;;;;;;;;;;-2.69;69.34;101373.56;4860948;29;20288;-63
2022/02/23 19:54:31;;;;;;;;;;;;;;;-2.73;68.54;101377.22;4860855;29;19928;-64
2022/02/23 19:56:56;;;;;;;;;;;;;;;-2.74;69.19;101381.59;4860980;29;19931;-66
2022/02/23 19:59:21;;;;;;;;;;;;;;;-2.71;69.11;101391.03;4859973;29;19928;-65